NCAR-RAP Real-Time Weather Data

Output produced by METARs form (08 May 2021  16:37 UTC)
found at http://weather.rap.ucar.edu/surface/
 
KVIH 081553Z AUTO 11013KT 10SM FEW060 SCT120 16/08 A3000 RMK AO2 SLP156 T01560078
KVIH 081453Z AUTO 09012KT 10SM SCT026 BKN033 OVC039 13/07 A3001 RMK AO2 SLP161 60001 T01280067 56002
KVIH 081353Z AUTO 10010KT 10SM BKN038 BKN050 OVC110 12/07 A3002 RMK AO2 SLP162 T01220067
KVIH 081253Z AUTO 09008KT 10SM FEW120 12/07 A3001 RMK AO2 RAB1157E16 SLP158 P0001 T01170072
KVIH 081153Z AUTO 10009KT 10SM BKN070 OVC080 12/07 A3002 RMK AO2 RAB31E44 SLP162 P0000 60000 T01220072 10144 20122 50005
KVIH 081053Z AUTO 10006KT 10SM OVC070 13/08 A3002 RMK AO2 SLP161 T01330078
KVIH 080953Z AUTO 08007KT 10SM OVC075 14/08 A3002 RMK AO2 SLP158 T01390083
KVIH 080853Z AUTO 09005KT 10SM OVC065 14/08 A3001 RMK AO2 SLP155 T01440083 56018
KVIH 080753Z AUTO 00000KT 10SM OVC070 13/11 A3002 RMK AO2 SLP161 T01330106
KVIH 080653Z AUTO 00000KT 10SM OVC075 14/10 A3004 RMK AO2 SLP166 T01390100
KVIH 080553Z AUTO 22005KT 10SM OVC070 14/09 A3006 RMK AO2 SLP173 T01390089 10183 20139 402220033 53004
KVIH 080453Z AUTO 24004KT 10SM OVC070 14/09 A3005 RMK AO2 SLP169 T01440089
KVIH 080353Z AUTO 22003KT 10SM OVC075 14/08 A3005 RMK AO2 SLP169 T01440083
KVIH 080253Z AUTO 24004KT 10SM OVC080 15/08 A3005 RMK AO2 SLP171 T01500078 53008
KVIH 080153Z AUTO 24004KT 10SM OVC085 16/07 A3003 RMK AO2 SLP166 T01560072